Time;durP1;ratioP1;P1;durP2;ratioP2;P2;SDS_P1;SDS_P2;PMS_P1;PMS_P2;Temp;Humidity;BMP_temperature;BMP_pressure;BME280_temperature;BME280_humidity;BME280_pressure;Samples;Min_cycle;Max_cycle;Signal;HPM_P1;HPM_P2
2023/12/22 00:00:14;;;;;;;40.25;27.50;;;;;;;2.94;67.75;93110.53;4203652;28;20056;-71
2023/12/22 00:02:16;;;;;;;40.03;26.38;;;;;;;3.02;68.03;93107.19;4207930;28;20043;-69
2023/12/22 00:04:18;;;;;;;37.00;25.70;;;;;;;2.90;67.41;93100.66;4207568;28;20041;-69
2023/12/22 00:06:19;;;;;;;34.60;25.45;;;;;;;2.98;67.29;93100.69;4191130;28;20049;-69
2023/12/22 00:08:23;;;;;;;33.25;24.60;;;;;;;2.95;67.23;93091.47;4208245;28;20309;-68
2023/12/22 00:10:25;;;;;;;36.65;24.48;;;;;;;3.05;67.18;93086.19;4199854;28;20052;-71
2023/12/22 00:12:28;;;;;;;34.35;23.27;;;;;;;3.18;67.15;93091.75;4210735;28;20098;-69
2023/12/22 00:14:30;;;;;;;36.65;24.27;;;;;;;3.21;66.60;93095.81;4205587;28;20057;-70
2023/12/22 00:16:32;;;;;;;32.20;23.13;;;;;;;3.19;66.25;93084.81;4205914;28;20090;-70
2023/12/22 00:18:34;;;;;;;31.77;23.40;;;;;;;3.05;66.44;93076.66;4203439;28;20127;-70
2023/12/22 00:20:36;;;;;;;32.22;23.08;;;;;;;2.81;66.90;93082.47;4207700;28;20051;-70
2023/12/22 00:22:37;;;;;;;33.28;23.00;;;;;;;2.74;67.64;93094.41;4203165;28;20044;-71
2023/12/22 00:24:40;;;;;;;31.52;22.88;;;;;;;2.75;67.75;93069.34;4183821;28;20044;-70
2023/12/22 00:26:42;;;;;;;31.83;23.10;;;;;;;2.70;67.75;93077.56;4204022;28;20143;-71
2023/12/22 00:28:44;;;;;;;30.60;24.02;;;;;;;2.50;68.29;93060.63;4206667;28;20225;-71
2023/12/22 00:30:46;;;;;;;32.85;22.50;;;;;;;2.54;68.35;93064.50;4198800;28;20056;-69
2023/12/22 00:32:48;;;;;;;32.25;23.75;;;;;;;2.41;69.18;93046.81;4204658;28;20052;-69
2023/12/22 00:34:50;;;;;;;34.90;24.15;;;;;;;2.49;68.93;93046.88;4203941;28;20409;-72
2023/12/22 00:36:52;;;;;;;32.00;24.42;;;;;;;2.56;69.10;93034.16;4199334;28;20135;-69
2023/12/22 00:38:54;;;;;;;35.80;24.50;;;;;;;2.69;68.49;93044.94;4198178;28;20083;-70
2023/12/22 00:40:55;;;;;;;35.45;24.15;;;;;;;2.76;68.18;93050.31;4205677;28;20098;-71
2023/12/22 00:42:57;;;;;;;33.33;24.33;;;;;;;2.78;67.82;93036.25;4207567;28;20080;-69
2023/12/22 00:44:59;;;;;;;34.13;24.63;;;;;;;2.63;68.09;93030.81;4200755;28;20080;-70
2023/12/22 00:47:01;;;;;;;31.30;23.58;;;;;;;2.59;68.47;93045.00;4197764;28;20052;-70
2023/12/22 00:49:05;;;;;;;33.05;25.08;;;;;;;2.46;68.18;93037.66;4196669;28;20127;-88
2023/12/22 00:51:10;;;;;;;32.00;23.30;;;;;;;2.27;68.96;93030.09;4194548;28;20091;-71
2023/12/22 00:53:12;;;;;;;34.22;23.77;;;;;;;2.21;69.60;93043.59;4197913;28;20044;-67
2023/12/22 00:55:14;;;;;;;36.67;24.65;;;;;;;2.16;69.29;93043.25;4201019;28;20056;-68
2023/12/22 00:57:16;;;;;;;33.92;24.20;;;;;;;2.35;69.82;93040.50;4196405;28;20040;-70
2023/12/22 00:59:18;;;;;;;36.53;23.73;;;;;;;2.56;68.81;93031.56;4185398;28;20067;-69
2023/12/22 01:01:21;;;;;;;34.67;24.75;;;;;;;2.38;68.11;93034.19;4200198;28;20052;-71
2023/12/22 01:03:23;;;;;;;33.40;23.13;;;;;;;2.31;69.33;93046.13;4187887;28;20098;-69
2023/12/22 01:05:25;;;;;;;32.25;23.05;;;;;;;2.50;69.29;93042.53;4179921;28;20052;-71
2023/12/22 01:07:27;;;;;;;34.22;23.33;;;;;;;2.70;68.56;93059.47;4199444;28;20143;-69
2023/12/22 01:09:29;;;;;;;33.63;23.17;;;;;;;2.90;67.92;93044.53;4199192;28;20130;-69
2023/12/22 01:11:30;;;;;;;32.85;23.88;;;;;;;2.96;67.22;93040.53;4201785;28;20048;-71
2023/12/22 01:13:32;;;;;;;31.77;23.73;;;;;;;3.02;67.11;93052.88;4202823;28;20048;-71
2023/12/22 01:15:34;;;;;;;30.77;23.15;;;;;;;3.03;66.66;93051.88;4199115;28;20048;-71
2023/12/22 01:17:36;;;;;;;28.60;21.42;;;;;;;3.10;66.76;93026.22;4186281;28;20060;-70
2023/12/22 01:19:38;;;;;;;35.70;23.38;;;;;;;3.08;66.61;93034.16;4209258;28;20146;-71
2023/12/22 01:21:40;;;;;;;33.35;23.63;;;;;;;3.09;66.11;93028.00;4209128;28;20413;-68
2023/12/22 01:23:42;;;;;;;29.92;21.58;;;;;;;3.18;66.21;93034.81;4205832;28;20040;-68
2023/12/22 01:25:44;;;;;;;27.63;20.25;;;;;;;3.27;66.24;93025.34;4198480;28;20082;-69
2023/12/22 01:27:47;;;;;;;30.58;22.27;;;;;;;3.27;66.05;93023.56;4197911;28;20087;-68
2023/12/22 01:29:49;;;;;;;29.75;23.10;;;;;;;3.11;66.19;93033.81;4206635;28;20048;-70
2023/12/22 01:31:51;;;;;;;28.88;22.55;;;;;;;3.12;67.34;93024.28;4201141;28;20123;-69
2023/12/22 01:33:53;;;;;;;31.42;21.70;;;;;;;3.21;66.56;93024.16;4200836;28;20048;-70
2023/12/22 01:35:55;;;;;;;30.83;21.25;;;;;;;3.37;66.20;93014.84;4201422;28;20052;-69
2023/12/22 01:37:57;;;;;;;28.75;21.90;;;;;;;3.39;65.46;93018.88;4189622;28;20143;-69
2023/12/22 01:39:59;;;;;;;29.48;20.80;;;;;;;3.30;65.74;92993.97;4205622;28;20081;-69
2023/12/22 01:42:01;;;;;;;27.95;20.45;;;;;;;3.16;65.63;93003.13;4201311;28;20048;-71
2023/12/22 01:44:03;;;;;;;26.63;20.65;;;;;;;3.00;66.34;92995.31;4207742;28;20110;-71
2023/12/22 01:46:07;;;;;;;30.00;20.83;;;;;;;2.70;67.51;92996.59;4207007;28;20048;-69
2023/12/22 01:48:09;;;;;;;26.45;19.45;;;;;;;2.72;68.04;92997.28;4205857;28;20052;-70
2023/12/22 01:50:11;;;;;;;30.02;20.35;;;;;;;2.89;68.03;92988.63;4204332;28;20103;-68
2023/12/22 01:52:14;;;;;;;24.08;18.35;;;;;;;2.93;67.16;92971.84;4205515;28;20044;-68
2023/12/22 01:54:16;;;;;;;26.80;19.02;;;;;;;2.95;67.14;93000.94;4184038;28;20044;-70
2023/12/22 01:56:18;;;;;;;27.58;18.42;;;;;;;2.97;67.36;92985.25;4194560;28;20062;-71
2023/12/22 01:58:21;;;;;;;24.85;19.15;;;;;;;2.91;67.07;92972.97;4196523;28;20134;-69
2023/12/22 02:00:22;;;;;;;26.00;19.63;;;;;;;2.85;67.12;92987.31;4202651;28;20048;-70
2023/12/22 02:02:24;;;;;;;27.42;18.63;;;;;;;2.74;67.10;92985.81;4195637;28;20053;-69
2023/12/22 02:04:26;;;;;;;26.20;18.00;;;;;;;2.77;67.54;92985.47;4196363;28;20304;-69
2023/12/22 02:06:30;;;;;;;24.05;18.35;;;;;;;2.85;66.98;92979.53;4195429;28;20609;-69
2023/12/22 02:08:33;;;;;;;24.95;17.92;;;;;;;2.90;67.38;92973.91;4193026;28;20060;-70
2023/12/22 02:10:35;;;;;;;27.23;18.97;;;;;;;3.02;67.08;92983.03;4204395;28;20048;-71
2023/12/22 02:12:37;;;;;;;27.60;19.05;;;;;;;2.88;66.64;92981.81;4188384;28;20714;-70
2023/12/22 02:14:39;;;;;;;27.88;18.77;;;;;;;2.85;67.03;92959.66;4207671;28;20047;-69
2023/12/22 02:16:47;;;;;;;23.45;17.70;;;;;;;2.99;67.76;92971.22;4203134;28;20049;-69
2023/12/22 02:18:51;;;;;;;23.75;17.02;;;;;;;3.07;67.49;92980.75;4195278;28;20048;-70
2023/12/22 02:20:53;;;;;;;;;;;;;;;3.20;67.20;92969.97;4184084;28;20510;-69
2023/12/22 02:22:54;;;;;;;23.27;16.27;;;;;;;3.34;66.74;92966.00;4207235;28;19924;-67
2023/12/22 02:24:56;;;;;;;24.73;18.60;;;;;;;3.46;65.82;92967.28;4194941;28;20135;-68
2023/12/22 02:27:27;;;;;;;26.10;17.85;;;;;;;3.47;65.63;92969.72;4201879;28;20044;-68
2023/12/22 02:29:34;;;;;;;26.38;18.95;;;;;;;3.33;65.94;92969.53;4173174;28;20099;-68
2023/12/22 02:31:44;;;;;;;27.10;18.77;;;;;;;3.24;66.16;92963.53;4176589;28;20048;-69
2023/12/22 02:33:47;;;;;;;25.75;19.02;;;;;;;3.24;66.70;92966.91;4180781;28;20055;-68
2023/12/22 02:35:50;;;;;;;25.05;18.73;;;;;;;3.11;66.37;92969.13;4191946;28;20044;-66
2023/12/22 02:37:53;;;;;;;26.70;18.73;;;;;;;3.02;66.71;92955.38;4190662;28;20063;-68
2023/12/22 02:39:55;;;;;;;24.27;17.45;;;;;;;3.04;67.28;92960.41;4185349;28;20056;-69
2023/12/22 02:41:58;;;;;;;26.88;18.52;;;;;;;3.05;67.15;92982.69;4189126;28;20577;-71
2023/12/22 02:44:00;;;;;;;28.65;20.25;;;;;;;3.07;67.01;92970.41;4198010;28;20037;-69
2023/12/22 02:46:03;;;;;;;28.38;18.92;;;;;;;3.14;67.28;92961.09;4178280;28;20053;-69
2023/12/22 02:48:05;;;;;;;25.48;19.13;;;;;;;3.20;67.24;92964.81;4194026;28;20052;-70
2023/12/22 02:50:08;;;;;;;28.85;19.25;;;;;;;3.38;66.38;92951.78;4197337;28;20173;-70
2023/12/22 02:52:10;;;;;;;24.13;18.27;;;;;;;3.52;66.45;92955.50;4174363;28;20132;-69
2023/12/22 02:54:12;;;;;;;24.80;17.92;;;;;;;3.40;65.60;92947.22;4200737;28;20060;-69
2023/12/22 02:56:14;;;;;;;31.67;19.17;;;;;;;3.19;65.82;92947.66;4195423;28;20063;-69
2023/12/22 02:58:16;;;;;;;26.42;17.83;;;;;;;3.30;66.27;92936.22;4205184;28;20044;-70
2023/12/22 03:00:18;;;;;;;25.33;18.50;;;;;;;3.27;65.93;92935.56;4195774;28;20475;-68
2023/12/22 03:02:19;;;;;;;30.17;19.42;;;;;;;3.09;66.95;92932.25;4208551;28;20411;-69
2023/12/22 03:04:21;;;;;;;25.15;18.00;;;;;;;3.06;67.49;92928.22;4199158;28;20407;-71
2023/12/22 03:06:23;;;;;;;25.13;18.83;;;;;;;3.16;67.46;92937.63;4202940;28;20067;-69
2023/12/22 03:08:25;;;;;;;25.75;18.35;;;;;;;3.04;66.88;92916.41;4202061;28;20079;-68
2023/12/22 03:10:29;;;;;;;28.38;18.75;;;;;;;2.89;67.68;92936.09;4204383;28;20531;-69
2023/12/22 03:12:31;;;;;;;24.80;18.13;;;;;;;2.97;68.34;92931.75;4188591;28;20087;-69
2023/12/22 03:14:33;;;;;;;27.20;18.77;;;;;;;3.17;67.39;92936.66;4187055;28;20052;-69
2023/12/22 03:16:35;;;;;;;29.20;20.05;;;;;;;2.94;66.81;92939.00;4202075;28;20052;-68
2023/12/22 03:18:40;;;;;;;27.50;18.83;;;;;;;2.66;67.26;92941.78;4201641;28;20268;-68
2023/12/22 03:20:42;;;;;;;34.95;20.83;;;;;;;2.53;68.04;92938.84;4192398;28;20062;-68
2023/12/22 03:22:43;;;;;;;29.98;20.27;;;;;;;2.41;68.58;92940.84;4211382;28;20052;-68
2023/12/22 03:24:45;;;;;;;25.58;19.77;;;;;;;2.43;68.75;92936.34;4200842;28;20641;-67
2023/12/22 03:26:47;;;;;;;27.80;19.83;;;;;;;2.56;68.88;92944.50;4202425;28;20074;-68
2023/12/22 03:28:49;;;;;;;27.52;19.67;;;;;;;2.44;68.39;92937.97;4207078;28;20095;-70
2023/12/22 03:30:51;;;;;;;26.83;19.25;;;;;;;2.52;68.50;92932.03;4207423;28;20047;-69
2023/12/22 03:32:53;;;;;;;34.40;21.40;;;;;;;2.67;68.62;92948.59;4209616;28;20720;-70
2023/12/22 03:34:55;;;;;;;28.92;20.77;;;;;;;2.68;68.17;92950.22;4210632;28;20507;-69
2023/12/22 03:36:57;;;;;;;29.00;20.05;;;;;;;2.71;68.36;92944.75;4192561;28;20246;-68
2023/12/22 03:38:58;;;;;;;30.13;20.60;;;;;;;2.80;68.14;92948.19;4206542;28;20400;-71
2023/12/22 03:41:00;;;;;;;24.42;19.67;;;;;;;2.86;68.30;92942.38;4208020;28;20152;-70
2023/12/22 03:43:02;;;;;;;29.45;21.33;;;;;;;3.06;67.85;92937.75;4191787;28;20048;-70
2023/12/22 03:45:05;;;;;;;28.25;19.73;;;;;;;3.16;67.55;92942.78;4211194;28;20408;-70
2023/12/22 03:47:08;;;;;;;34.00;19.98;;;;;;;3.24;67.30;92930.69;4207789;28;20398;-70
2023/12/22 03:49:10;;;;;;;28.65;20.80;;;;;;;3.37;67.48;92940.59;4198911;28;20093;-68
2023/12/22 03:51:13;;;;;;;31.60;20.77;;;;;;;3.50;66.73;92934.94;4209885;28;20112;-68
2023/12/22 03:53:15;;;;;;;27.47;20.10;;;;;;;3.24;66.21;92935.88;4210529;28;20074;-70
2023/12/22 03:55:17;;;;;;;28.20;19.85;;;;;;;2.98;66.87;92935.16;4195458;28;20454;-69
2023/12/22 03:57:19;;;;;;;28.38;20.20;;;;;;;3.07;67.04;92939.38;4199686;28;20134;-68
2023/12/22 03:59:21;;;;;;;27.13;19.38;;;;;;;2.99;66.93;92932.41;4199871;28;20070;-69
2023/12/22 04:01:23;;;;;;;26.95;19.73;;;;;;;3.01;67.63;92940.81;4205737;28;20048;-68
2023/12/22 04:03:25;;;;;;;27.55;19.38;;;;;;;3.07;67.32;92939.38;4199539;28;20288;-67
2023/12/22 04:05:28;;;;;;;27.17;19.83;;;;;;;3.18;67.15;92938.28;4180568;28;20122;-68
2023/12/22 04:07:30;;;;;;;28.75;20.27;;;;;;;3.32;67.55;92935.09;4205193;28;21140;-68
2023/12/22 04:09:32;;;;;;;26.67;20.15;;;;;;;3.44;67.38;92940.75;4208551;28;20552;-70
2023/12/22 04:11:36;;;;;;;27.88;19.00;;;;;;;3.47;66.52;92946.44;4206039;28;20499;-68
2023/12/22 04:13:41;;;;;;;26.73;18.67;;;;;;;3.53;67.13;92944.16;4205954;28;20117;-70
2023/12/22 04:15:43;;;;;;;28.20;20.13;;;;;;;3.69;67.22;92950.19;4204004;28;20407;-70
2023/12/22 04:17:45;;;;;;;25.15;18.73;;;;;;;3.69;65.80;92946.78;4203910;28;20055;-67
2023/12/22 04:19:47;;;;;;;27.73;18.95;;;;;;;3.58;65.95;92939.34;4204769;28;20049;-68
2023/12/22 04:21:49;;;;;;;29.27;19.55;;;;;;;3.51;66.56;92941.75;4202043;28;20079;-70
2023/12/22 04:23:51;;;;;;;24.55;18.80;;;;;;;3.47;66.84;92930.91;4203800;28;20060;-69
2023/12/22 04:25:53;;;;;;;28.75;20.42;;;;;;;3.43;67.13;92928.78;4199002;28;20044;-70
2023/12/22 04:27:55;;;;;;;26.33;18.98;;;;;;;3.47;67.52;92932.69;4199657;28;20063;-68
2023/12/22 04:29:57;;;;;;;23.58;18.38;;;;;;;3.32;66.70;92918.75;4196884;28;20080;-67
2023/12/22 04:31:59;;;;;;;25.63;19.60;;;;;;;3.36;67.53;92928.63;4204908;28;20056;-70
2023/12/22 04:34:01;;;;;;;27.20;18.58;;;;;;;3.42;67.91;92917.63;4187192;28;20127;-69
2023/12/22 04:36:03;;;;;;;24.27;18.40;;;;;;;3.58;67.68;92927.19;4204288;28;20535;-69
2023/12/22 04:38:05;;;;;;;23.90;18.38;;;;;;;3.68;67.19;92922.69;4199458;28;20137;-69
2023/12/22 04:40:08;;;;;;;28.63;18.48;;;;;;;3.71;66.91;92918.16;4204688;28;20051;-68
2023/12/22 04:42:10;;;;;;;24.08;18.20;;;;;;;3.72;66.43;92910.19;4204694;28;20542;-71
2023/12/22 04:44:12;;;;;;;24.58;18.85;;;;;;;3.77;66.35;92912.34;4203350;28;20048;-69
2023/12/22 04:46:13;;;;;;;26.77;19.17;;;;;;;3.71;66.99;92916.38;4202345;28;20052;-71
2023/12/22 04:48:15;;;;;;;28.63;19.52;;;;;;;3.76;67.57;92902.94;4200669;28;20143;-67
2023/12/22 04:50:17;;;;;;;23.77;18.35;;;;;;;3.71;67.50;92906.00;4200639;28;20089;-69
2023/12/22 04:52:19;;;;;;;24.27;17.58;;;;;;;3.76;67.53;92902.94;4203827;28;20493;-70
2023/12/22 04:54:21;;;;;;;25.85;18.63;;;;;;;3.72;67.47;92896.44;4194924;28;20082;-70
2023/12/22 04:56:23;;;;;;;23.77;18.73;;;;;;;3.68;67.38;92909.72;4198102;28;20056;-69
2023/12/22 04:58:25;;;;;;;26.85;18.30;;;;;;;3.65;67.48;92917.81;4197668;28;20052;-70
2023/12/22 05:00:27;;;;;;;29.13;20.02;;;;;;;3.50;67.53;92909.06;4199196;28;20083;-70
2023/12/22 05:02:29;;;;;;;31.92;18.95;;;;;;;3.63;67.45;92896.44;4209546;28;20110;-70
2023/12/22 05:04:30;;;;;;;29.02;19.77;;;;;;;3.49;67.51;92894.50;4198572;28;20137;-70
2023/12/22 05:06:32;;;;;;;28.25;19.88;;;;;;;3.42;67.82;92902.09;4203105;28;20043;-70
2023/12/22 05:08:34;;;;;;;26.17;19.02;;;;;;;3.40;68.21;92896.28;4200885;28;20093;-70
2023/12/22 05:10:36;;;;;;;25.17;19.20;;;;;;;3.45;68.89;92908.75;4198691;28;20083;-71
2023/12/22 05:12:38;;;;;;;27.95;19.30;;;;;;;3.53;68.42;92893.22;4199736;28;20087;-70
2023/12/22 05:14:39;;;;;;;27.00;20.35;;;;;;;3.58;68.59;92898.72;4205886;28;20045;-68
2023/12/22 05:16:41;;;;;;;28.95;18.83;;;;;;;3.57;68.42;92899.69;4199037;28;20512;-69
2023/12/22 05:18:43;;;;;;;24.45;18.52;;;;;;;3.58;68.06;92895.31;4195695;28;20060;-69
2023/12/22 05:20:45;;;;;;;30.00;18.92;;;;;;;3.64;68.58;92890.31;4198952;28;20047;-72
2023/12/22 05:22:47;;;;;;;26.83;19.02;;;;;;;3.66;68.75;92882.38;4202845;28;20256;-71
2023/12/22 05:24:49;;;;;;;17.75;14.38;;;;;;;3.48;70.24;92879.94;4205839;28;20166;-71
2023/12/22 05:26:52;;;;;;;25.25;19.08;;;;;;;3.16;70.36;92881.53;4182737;28;20409;-71
2023/12/22 05:28:54;;;;;;;23.35;18.95;;;;;;;3.24;70.36;92888.47;4206619;28;20437;-71
2023/12/22 05:30:56;;;;;;;26.45;18.55;;;;;;;3.19;71.27;92870.03;4211416;28;20048;-68
2023/12/22 05:32:57;;;;;;;27.55;19.05;;;;;;;3.35;71.61;92903.69;4209972;28;20052;-70
2023/12/22 05:34:59;;;;;;;23.15;18.23;;;;;;;3.41;71.25;92892.72;4190809;28;20443;-69
2023/12/22 05:37:02;;;;;;;29.20;18.63;;;;;;;3.53;70.76;92884.63;4208618;28;20060;-70
2023/12/22 05:39:03;;;;;;;24.02;18.00;;;;;;;3.39;70.96;92896.44;4206005;28;20058;-71
2023/12/22 05:41:06;;;;;;;26.00;18.40;;;;;;;3.43;71.88;92883.00;4198291;28;20498;-69
2023/12/22 05:43:08;;;;;;;20.77;16.70;;;;;;;3.54;72.05;92904.38;4209296;28;20043;-71
2023/12/22 05:45:11;;;;;;;22.10;14.48;;;;;;;3.41;72.85;92886.72;4206690;28;20051;-67
2023/12/22 05:47:13;;;;;;;19.83;15.40;;;;;;;3.61;72.85;92880.25;4208256;28;20078;-70
2023/12/22 05:49:15;;;;;;;21.70;16.77;;;;;;;3.62;71.82;92873.31;4204024;28;20433;-69
2023/12/22 05:51:17;;;;;;;24.90;18.30;;;;;;;3.83;71.74;92899.53;4197216;28;20143;-71
2023/12/22 05:53:19;;;;;;;25.55;17.77;;;;;;;3.76;70.42;92893.38;4202865;28;20303;-71
2023/12/22 05:55:21;;;;;;;24.70;19.23;;;;;;;3.64;70.75;92882.53;4182496;28;20119;-72
2023/12/22 05:57:25;;;;;;;23.23;17.70;;;;;;;3.69;70.49;92882.03;4202015;28;20053;-70
2023/12/22 05:59:32;;;;;;;24.45;18.02;;;;;;;3.71;70.60;92881.91;4201770;28;20049;-70
2023/12/22 06:01:34;;;;;;;26.65;19.23;;;;;;;3.75;70.87;92878.00;4209592;28;20082;-70
2023/12/22 06:03:35;;;;;;;28.45;19.08;;;;;;;3.80;70.28;92896.44;4207298;28;20105;-70
2023/12/22 06:05:38;;;;;;;23.02;17.80;;;;;;;3.58;70.76;92875.41;4200808;28;20045;-70
2023/12/22 06:07:41;;;;;;;25.17;18.77;;;;;;;3.59;71.22;92871.88;4208702;28;20048;-71
2023/12/22 06:09:42;;;;;;;22.65;18.73;;;;;;;3.46;71.78;92892.22;4198647;28;20347;-71
2023/12/22 06:11:45;;;;;;;28.67;18.70;;;;;;;3.59;71.93;92890.00;4199101;28;20489;-72
2023/12/22 06:13:47;;;;;;;26.17;20.05;;;;;;;3.67;71.84;92895.16;4205677;28;20052;-72
2023/12/22 06:15:49;;;;;;;25.95;18.98;;;;;;;3.72;71.73;92889.47;4191054;28;20036;-71
2023/12/22 06:17:51;;;;;;;28.08;19.15;;;;;;;3.84;71.60;92905.53;4196849;28;20051;-70
2023/12/22 06:19:53;;;;;;;29.40;20.38;;;;;;;3.89;70.80;92904.06;4204782;28;20044;-72
2023/12/22 06:21:57;;;;;;;28.40;20.63;;;;;;;3.78;70.98;92891.44;4205492;28;20044;-70
2023/12/22 06:23:58;;;;;;;24.63;19.20;;;;;;;3.77;70.92;92904.56;4202808;28;20291;-72
2023/12/22 06:26:02;;;;;;;26.20;19.63;;;;;;;3.65;70.88;92914.41;4198046;28;20082;-71
2023/12/22 06:28:04;;;;;;;25.05;18.77;;;;;;;3.50;71.56;92914.22;4206881;28;20082;-71
2023/12/22 06:30:06;;;;;;;25.35;18.25;;;;;;;3.44;71.86;92910.53;4205710;28;20077;-69
2023/12/22 06:32:09;;;;;;;22.70;18.60;;;;;;;3.37;72.22;92913.91;4208450;28;21037;-71
2023/12/22 06:34:11;;;;;;;26.83;19.27;;;;;;;3.27;72.32;92909.69;4200722;28;20536;-69
2023/12/22 06:36:30;;;;;;;25.25;18.55;;;;;;;3.48;72.23;92918.75;4206402;28;20067;-70
2023/12/22 06:38:32;;;;;;;32.13;22.40;;;;;;;3.63;73.10;92934.47;4205744;28;20052;-70
2023/12/22 06:40:34;;;;;;;26.48;19.13;;;;;;;3.67;71.73;92918.44;4206595;28;20059;-70
2023/12/22 06:42:36;;;;;;;24.67;18.88;;;;;;;3.83;71.82;92914.25;4199590;28;20056;-71
2023/12/22 06:44:38;;;;;;;23.42;18.23;;;;;;;3.93;71.11;92914.09;4198372;28;20088;-70
2023/12/22 06:46:40;;;;;;;25.90;19.08;;;;;;;4.06;70.93;92915.22;4177712;28;20623;-70
2023/12/22 06:48:42;;;;;;;25.90;18.92;;;;;;;4.24;70.49;92927.19;4186880;28;20057;-71
2023/12/22 06:50:44;;;;;;;25.42;17.40;;;;;;;4.09;69.22;92914.91;4196384;28;20143;-72
2023/12/22 06:52:47;;;;;;;25.48;17.27;;;;;;;3.95;69.74;92904.38;4202930;28;20628;-71
2023/12/22 06:54:49;;;;;;;28.98;18.90;;;;;;;3.81;70.59;92914.44;4204978;28;20052;-72
2023/12/22 06:56:51;;;;;;;25.98;18.77;;;;;;;3.84;70.37;92921.88;4184347;28;20128;-70
2023/12/22 06:58:54;;;;;;;25.75;19.05;;;;;;;3.99;70.44;92916.03;4196873;28;20089;-72
2023/12/22 07:00:56;;;;;;;25.58;19.70;;;;;;;4.03;69.78;92925.91;4182462;28;20121;-69
2023/12/22 07:02:58;;;;;;;29.73;20.15;;;;;;;4.05;70.67;92923.16;4206433;28;20055;-71
2023/12/22 07:05:09;;;;;;;33.35;19.40;;;;;;;3.99;70.30;92922.03;4205938;28;20457;-70
2023/12/22 07:07:11;;;;;;;24.65;18.83;;;;;;;3.94;70.90;92920.91;4199281;28;20066;-69
2023/12/22 07:09:19;;;;;;;24.98;17.83;;;;;;;4.07;70.82;92926.41;4197656;28;20499;-71
2023/12/22 07:11:21;;;;;;;24.77;20.08;;;;;;;3.79;71.33;92937.09;4196476;28;20056;-70
2023/12/22 07:13:31;;;;;;;28.63;20.38;;;;;;;3.47;72.14;92914.56;4205019;28;20048;-70
2023/12/22 07:15:33;;;;;;;27.10;19.73;;;;;;;3.55;72.75;92922.34;4195483;28;20041;-72
2023/12/22 07:17:35;;;;;;;25.50;18.75;;;;;;;3.74;72.93;92923.00;4207529;28;20474;-70
2023/12/22 07:19:37;;;;;;;27.90;18.30;;;;;;;3.89;71.65;92922.19;4204949;28;20048;-70
2023/12/22 07:21:40;;;;;;;26.98;19.55;;;;;;;3.96;71.91;92924.94;4178676;28;20064;-71
2023/12/22 07:23:44;;;;;;;24.48;19.83;;;;;;;4.04;71.70;92935.31;4199631;28;20045;-70
2023/12/22 07:25:46;;;;;;;30.13;21.77;;;;;;;4.04;72.36;92931.91;4205908;28;20048;-70
2023/12/22 07:27:48;;;;;;;28.17;20.02;;;;;;;4.06;71.49;92940.31;4182566;28;20500;-70
2023/12/22 07:29:50;;;;;;;49.95;36.63;;;;;;;4.16;72.06;92935.78;4200192;28;20039;-71
2023/12/22 07:31:52;;;;;;;31.70;22.08;;;;;;;4.20;72.38;92937.06;4207839;28;20052;-72
2023/12/22 07:33:54;;;;;;;34.75;24.73;;;;;;;4.33;71.91;92935.78;4206831;28;20491;-69
2023/12/22 07:35:56;;;;;;;39.95;28.50;;;;;;;4.39;71.84;92940.28;4200814;28;20147;-70
2023/12/22 07:37:58;;;;;;;26.33;20.52;;;;;;;4.45;71.52;92937.84;4203669;28;20040;-69
2023/12/22 07:39:59;;;;;;;34.05;21.60;;;;;;;4.38;70.82;92939.47;4179994;28;20583;-71
2023/12/22 07:42:01;;;;;;;27.98;19.73;;;;;;;4.28;71.83;92941.41;4202740;28;20408;-71
2023/12/22 07:44:03;;;;;;;30.83;20.25;;;;;;;4.26;71.97;92936.44;4202388;28;20403;-71
2023/12/22 07:46:09;;;;;;;42.28;30.50;;;;;;;4.28;72.19;92937.06;4201483;28;20336;-71
2023/12/22 07:48:13;;;;;;;32.30;24.50;;;;;;;4.32;72.36;92940.13;4209846;28;20471;-71
2023/12/22 07:50:15;;;;;;;31.10;21.25;;;;;;;4.31;72.29;92954.06;4206566;28;20059;-70
2023/12/22 07:52:19;;;;;;;;;;;;;;;4.25;71.75;92955.53;4209632;28;20384;-71
2023/12/22 07:54:21;;;;;;;30.65;21.35;;;;;;;4.22;71.83;92953.28;4206102;28;20071;-69
2023/12/22 07:56:24;;;;;;;29.13;21.08;;;;;;;4.35;72.45;92963.16;4210275;28;20044;-70
2023/12/22 07:58:26;;;;;;;31.10;23.00;;;;;;;4.38;72.51;92959.41;4188479;28;20052;-71
2023/12/22 08:00:28;;;;;;;28.33;21.15;;;;;;;4.32;72.88;92971.22;4206710;28;20055;-71
2023/12/22 08:02:29;;;;;;;30.25;19.92;;;;;;;3.99;72.83;92991.97;4191299;28;20606;-71
2023/12/22 08:04:32;;;;;;;24.75;19.85;;;;;;;4.01;72.61;92990.03;4208581;28;20062;-70
2023/12/22 08:06:33;;;;;;;27.33;20.48;;;;;;;3.98;73.77;92972.25;4205109;28;20097;-71
2023/12/22 08:08:36;;;;;;;33.45;21.15;;;;;;;4.03;73.03;92966.56;4206116;28;20048;-71
2023/12/22 08:10:38;;;;;;;26.88;19.52;;;;;;;4.16;73.23;92979.03;4209577;28;20036;-70
2023/12/22 08:12:40;;;;;;;30.35;19.88;;;;;;;4.36;73.70;92982.09;4201018;28;20135;-71
2023/12/22 08:14:42;;;;;;;27.00;20.15;;;;;;;4.51;73.08;92986.44;4192620;28;20052;-70
2023/12/22 08:16:44;;;;;;;29.67;20.30;;;;;;;4.55;73.03;93014.66;4194241;28;20044;-73
2023/12/22 08:18:46;;;;;;;26.80;19.50;;;;;;;4.29;72.54;93005.28;4203515;28;20135;-71
2023/12/22 08:20:49;;;;;;;35.92;24.58;;;;;;;4.23;73.30;93003.31;4206965;28;20048;-72
2023/12/22 08:22:52;;;;;;;32.58;22.40;;;;;;;4.13;74.47;93006.09;4204639;28;20135;-71
2023/12/22 08:24:56;;;;;;;30.80;22.58;;;;;;;4.22;74.45;93004.31;4209867;28;20048;-72
2023/12/22 08:26:57;;;;;;;26.30;20.45;;;;;;;4.32;74.65;93002.34;4203621;28;20045;-71
2023/12/22 08:28:59;;;;;;;31.60;21.30;;;;;;;4.37;74.21;92997.50;4210819;28;20051;-72
2023/12/22 08:31:02;;;;;;;29.17;22.10;;;;;;;4.37;74.65;93007.88;4207413;28;20095;-72
2023/12/22 08:33:04;;;;;;;30.10;22.65;;;;;;;4.29;74.90;93011.25;4209709;28;20048;-71
2023/12/22 08:35:07;;;;;;;31.83;21.90;;;;;;;4.19;75.35;93007.22;4192729;28;20410;-72
2023/12/22 08:37:09;;;;;;;30.10;22.15;;;;;;;4.30;76.11;92992.16;4175569;28;20048;-72
2023/12/22 08:39:12;;;;;;;32.28;22.20;;;;;;;4.40;75.16;92999.75;4203490;28;20040;-70
2023/12/22 08:41:14;;;;;;;28.43;21.53;;;;;;;4.42;75.48;93002.19;4202041;28;20047;-71
2023/12/22 08:43:16;;;;;;;31.80;22.63;;;;;;;4.38;75.25;93006.06;4204177;28;20094;-72
2023/12/22 08:45:18;;;;;;;27.25;22.40;;;;;;;4.47;75.98;93005.94;4198016;28;20076;-71
2023/12/22 08:47:20;;;;;;;29.02;22.13;;;;;;;4.54;76.21;93005.25;4206661;28;20426;-70
2023/12/22 08:49:22;;;;;;;28.25;23.48;;;;;;;4.68;75.62;93000.19;4183464;28;20053;-72
2023/12/22 08:51:24;;;;;;;32.35;23.83;;;;;;;4.76;75.69;92996.00;4195494;28;20056;-72
2023/12/22 08:53:29;;;;;;;30.42;22.83;;;;;;;4.86;75.19;92996.59;4197309;28;20419;-70
2023/12/22 08:55:31;;;;;;;34.78;24.92;;;;;;;4.85;74.87;92992.38;4205190;28;20048;-71
2023/12/22 08:57:33;;;;;;;33.10;23.45;;;;;;;4.95;75.58;92997.38;4197684;28;20274;-70
2023/12/22 08:59:35;;;;;;;28.42;21.63;;;;;;;5.05;74.77;93000.59;4201669;28;20764;-71
2023/12/22 09:01:37;;;;;;;34.33;23.65;;;;;;;5.05;73.95;93005.78;4196250;28;20508;-70
2023/12/22 09:03:43;;;;;;;36.20;23.23;;;;;;;5.01;74.61;93002.72;4206560;28;20052;-71
2023/12/22 09:05:46;;;;;;;36.92;24.70;;;;;;;4.98;74.68;93025.59;4207779;28;20495;-72
2023/12/22 09:07:48;;;;;;;30.65;22.80;;;;;;;4.90;74.44;93022.06;4206524;28;20106;-70
2023/12/22 09:09:51;;;;;;;29.52;21.58;;;;;;;4.85;75.06;93016.53;4204782;28;20039;-72
2023/12/22 09:11:53;;;;;;;33.40;22.15;;;;;;;4.74;75.41;93026.47;4195327;28;20102;-71
2023/12/22 09:13:55;;;;;;;33.15;23.33;;;;;;;4.77;75.35;93032.13;4200131;28;20101;-71
2023/12/22 09:15:58;;;;;;;36.67;25.40;;;;;;;4.80;75.83;93029.22;4192746;28;20090;-72
2023/12/22 09:17:59;;;;;;;32.88;23.05;;;;;;;4.99;76.45;93024.63;4204575;28;20063;-72
2023/12/22 09:20:01;;;;;;;33.50;22.92;;;;;;;5.14;76.02;93028.13;4209250;28;20048;-71
2023/12/22 09:22:03;;;;;;;36.53;23.63;;;;;;;5.30;75.46;93032.47;4202450;28;20048;-73
2023/12/22 09:24:05;;;;;;;33.78;25.13;;;;;;;5.36;75.01;93039.59;4209064;28;20081;-71
2023/12/22 09:26:07;;;;;;;31.35;24.67;;;;;;;5.20;74.74;93037.84;4199277;28;20052;-72
2023/12/22 09:28:09;;;;;;;36.72;24.58;;;;;;;5.32;75.74;93036.53;4209494;28;20054;-71
2023/12/22 09:30:11;;;;;;;36.00;24.58;;;;;;;5.33;75.30;93026.94;4210010;28;20043;-72